sensor_id;sensor_type;location;lat;lon;timestamp;P1;durP1;ratioP1;P2;durP2;ratioP2
31382;SDS011;18014;49.228;11.102;2023-03-02T00:01:53;30.05;;;18.65;;
31382;SDS011;18014;49.228;11.102;2023-03-02T00:04:02;35.25;;;21.02;;
31382;SDS011;18014;49.228;11.102;2023-03-02T00:06:04;36.33;;;23.55;;
31382;SDS011;18014;49.228;11.102;2023-03-02T00:08:07;33.60;;;21.00;;
31382;SDS011;18014;49.228;11.102;2023-03-02T00:10:09;38.42;;;23.67;;
31382;SDS011;18014;49.228;11.102;2023-03-02T00:12:10;35.47;;;23.50;;
31382;SDS011;18014;49.228;11.102;2023-03-02T00:14:12;37.22;;;22.98;;
31382;SDS011;18014;49.228;11.102;2023-03-02T00:16:13;36.60;;;23.30;;
31382;SDS011;18014;49.228;11.102;2023-03-02T00:18:15;35.22;;;22.65;;
31382;SDS011;18014;49.228;11.102;2023-03-02T00:20:16;38.78;;;23.20;;
31382;SDS011;18014;49.228;11.102;2023-03-02T00:22:17;39.20;;;22.55;;
31382;SDS011;18014;49.228;11.102;2023-03-02T00:24:18;38.35;;;22.73;;
31382;SDS011;18014;49.228;11.102;2023-03-02T00:26:19;36.70;;;23.55;;
31382;SDS011;18014;49.228;11.102;2023-03-02T00:28:20;35.08;;;24.05;;
31382;SDS011;18014;49.228;11.102;2023-03-02T00:30:21;36.65;;;23.50;;
31382;SDS011;18014;49.228;11.102;2023-03-02T00:32:22;40.75;;;24.05;;
31382;SDS011;18014;49.228;11.102;2023-03-02T00:34:23;40.90;;;24.52;;
31382;SDS011;18014;49.228;11.102;2023-03-02T00:36:24;41.30;;;24.05;;
31382;SDS011;18014;49.228;11.102;2023-03-02T00:38:25;38.05;;;22.58;;
31382;SDS011;18014;49.228;11.102;2023-03-02T00:40:27;37.28;;;23.35;;
31382;SDS011;18014;49.228;11.102;2023-03-02T00:42:28;36.83;;;22.77;;
31382;SDS011;18014;49.228;11.102;2023-03-02T00:44:29;39.95;;;23.90;;
31382;SDS011;18014;49.228;11.102;2023-03-02T00:46:30;38.45;;;23.45;;
31382;SDS011;18014;49.228;11.102;2023-03-02T00:48:31;37.40;;;24.00;;
31382;SDS011;18014;49.228;11.102;2023-03-02T00:50:33;34.28;;;22.25;;
31382;SDS011;18014;49.228;11.102;2023-03-02T00:52:39;41.00;;;24.05;;
31382;SDS011;18014;49.228;11.102;2023-03-02T00:54:40;37.78;;;22.63;;
31382;SDS011;18014;49.228;11.102;2023-03-02T00:56:42;40.08;;;22.75;;
31382;SDS011;18014;49.228;11.102;2023-03-02T00:58:43;36.42;;;22.08;;
31382;SDS011;18014;49.228;11.102;2023-03-02T01:00:44;35.53;;;22.27;;
31382;SDS011;18014;49.228;11.102;2023-03-02T01:02:45;35.42;;;22.48;;
31382;SDS011;18014;49.228;11.102;2023-03-02T01:04:46;32.70;;;21.05;;
31382;SDS011;18014;49.228;11.102;2023-03-02T01:06:48;37.92;;;23.02;;
31382;SDS011;18014;49.228;11.102;2023-03-02T01:08:49;39.38;;;22.80;;
31382;SDS011;18014;49.228;11.102;2023-03-02T01:10:50;37.80;;;23.23;;
31382;SDS011;18014;49.228;11.102;2023-03-02T01:12:51;36.05;;;22.70;;
31382;SDS011;18014;49.228;11.102;2023-03-02T01:14:52;36.85;;;23.20;;
31382;SDS011;18014;49.228;11.102;2023-03-02T01:16:53;38.00;;;23.55;;
31382;SDS011;18014;49.228;11.102;2023-03-02T01:18:54;40.17;;;24.20;;
31382;SDS011;18014;49.228;11.102;2023-03-02T01:21:01;39.47;;;25.02;;
31382;SDS011;18014;49.228;11.102;2023-03-02T01:23:04;39.38;;;23.02;;
31382;SDS011;18014;49.228;11.102;2023-03-02T01:25:05;33.63;;;20.88;;
31382;SDS011;18014;49.228;11.102;2023-03-02T01:27:07;34.17;;;21.67;;
31382;SDS011;18014;49.228;11.102;2023-03-02T01:29:08;35.78;;;22.80;;
31382;SDS011;18014;49.228;11.102;2023-03-02T01:31:10;31.67;;;20.63;;
31382;SDS011;18014;49.228;11.102;2023-03-02T01:33:11;32.58;;;20.88;;
31382;SDS011;18014;49.228;11.102;2023-03-02T01:35:12;36.65;;;21.35;;
31382;SDS011;18014;49.228;11.102;2023-03-02T01:37:13;37.47;;;22.15;;
31382;SDS011;18014;49.228;11.102;2023-03-02T01:39:14;38.13;;;22.90;;
31382;SDS011;18014;49.228;11.102;2023-03-02T01:41:16;35.30;;;21.42;;
31382;SDS011;18014;49.228;11.102;2023-03-02T01:43:17;39.28;;;23.27;;
31382;SDS011;18014;49.228;11.102;2023-03-02T01:47:53;37.53;;;23.42;;
31382;SDS011;18014;49.228;11.102;2023-03-02T01:49:58;34.35;;;21.65;;
31382;SDS011;18014;49.228;11.102;2023-03-02T01:52:04;39.63;;;23.35;;
31382;SDS011;18014;49.228;11.102;2023-03-02T01:54:07;38.80;;;23.83;;
31382;SDS011;18014;49.228;11.102;2023-03-02T01:56:16;42.35;;;23.95;;
31382;SDS011;18014;49.228;11.102;2023-03-02T01:58:20;37.33;;;22.17;;
31382;SDS011;18014;49.228;11.102;2023-03-02T02:02:28;36.75;;;21.77;;
31382;SDS011;18014;49.228;11.102;2023-03-02T02:04:29;35.80;;;22.10;;
31382;SDS011;18014;49.228;11.102;2023-03-02T02:06:33;35.80;;;21.17;;
31382;SDS011;18014;49.228;11.102;2023-03-02T02:08:39;37.22;;;21.10;;
31382;SDS011;18014;49.228;11.102;2023-03-02T02:10:40;34.30;;;21.23;;
31382;SDS011;18014;49.228;11.102;2023-03-02T02:12:41;36.78;;;21.88;;
31382;SDS011;18014;49.228;11.102;2023-03-02T02:14:42;36.60;;;21.27;;
31382;SDS011;18014;49.228;11.102;2023-03-02T02:16:44;36.95;;;22.08;;
31382;SDS011;18014;49.228;11.102;2023-03-02T02:18:45;42.45;;;23.70;;
31382;SDS011;18014;49.228;11.102;2023-03-02T02:20:46;35.17;;;21.10;;
31382;SDS011;18014;49.228;11.102;2023-03-02T02:25:13;38.40;;;21.60;;
31382;SDS011;18014;49.228;11.102;2023-03-02T02:27:31;36.70;;;22.23;;
31382;SDS011;18014;49.228;11.102;2023-03-02T02:29:34;38.55;;;21.70;;
31382;SDS011;18014;49.228;11.102;2023-03-02T02:33:43;34.28;;;21.30;;
31382;SDS011;18014;49.228;11.102;2023-03-02T02:35:46;36.83;;;21.75;;
31382;SDS011;18014;49.228;11.102;2023-03-02T02:37:50;35.58;;;20.85;;
31382;SDS011;18014;49.228;11.102;2023-03-02T02:40:05;36.63;;;21.88;;
31382;SDS011;18014;49.228;11.102;2023-03-02T02:42:33;38.75;;;22.33;;
31382;SDS011;18014;49.228;11.102;2023-03-02T02:44:34;36.88;;;21.83;;
31382;SDS011;18014;49.228;11.102;2023-03-02T02:46:35;39.28;;;22.65;;
31382;SDS011;18014;49.228;11.102;2023-03-02T02:48:36;33.60;;;20.65;;
31382;SDS011;18014;49.228;11.102;2023-03-02T02:50:38;39.40;;;23.33;;
31382;SDS011;18014;49.228;11.102;2023-03-02T02:52:39;39.70;;;22.60;;
31382;SDS011;18014;49.228;11.102;2023-03-02T02:54:40;37.85;;;23.13;;
31382;SDS011;18014;49.228;11.102;2023-03-02T02:56:43;39.15;;;22.90;;
31382;SDS011;18014;49.228;11.102;2023-03-02T02:58:48;40.45;;;22.67;;
31382;SDS011;18014;49.228;11.102;2023-03-02T03:00:52;37.05;;;22.67;;
31382;SDS011;18014;49.228;11.102;2023-03-02T03:03:37;36.30;;;21.98;;
31382;SDS011;18014;49.228;11.102;2023-03-02T03:05:29;35.60;;;20.55;;
31382;SDS011;18014;49.228;11.102;2023-03-02T03:07:31;40.70;;;23.88;;
31382;SDS011;18014;49.228;11.102;2023-03-02T03:09:32;39.58;;;24.27;;
31382;SDS011;18014;49.228;11.102;2023-03-02T03:11:34;45.08;;;26.92;;
31382;SDS011;18014;49.228;11.102;2023-03-02T03:13:36;45.70;;;26.42;;
31382;SDS011;18014;49.228;11.102;2023-03-02T03:15:38;43.67;;;25.42;;
31382;SDS011;18014;49.228;11.102;2023-03-02T03:17:39;37.00;;;22.23;;
31382;SDS011;18014;49.228;11.102;2023-03-02T03:19:45;37.38;;;21.67;;
31382;SDS011;18014;49.228;11.102;2023-03-02T03:21:47;38.60;;;22.67;;
31382;SDS011;18014;49.228;11.102;2023-03-02T03:23:50;39.78;;;23.63;;
31382;SDS011;18014;49.228;11.102;2023-03-02T03:25:51;37.42;;;22.00;;
31382;SDS011;18014;49.228;11.102;2023-03-02T03:27:52;35.78;;;21.95;;
31382;SDS011;18014;49.228;11.102;2023-03-02T03:29:53;38.17;;;23.98;;
31382;SDS011;18014;49.228;11.102;2023-03-02T03:31:54;38.88;;;21.92;;
31382;SDS011;18014;49.228;11.102;2023-03-02T03:33:57;34.85;;;22.55;;
31382;SDS011;18014;49.228;11.102;2023-03-02T03:35:59;39.55;;;23.45;;
31382;SDS011;18014;49.228;11.102;2023-03-02T03:38:00;39.63;;;23.02;;
31382;SDS011;18014;49.228;11.102;2023-03-02T03:40:03;38.05;;;22.15;;
31382;SDS011;18014;49.228;11.102;2023-03-02T03:42:05;34.15;;;21.95;;
31382;SDS011;18014;49.228;11.102;2023-03-02T03:44:07;41.72;;;22.73;;
31382;SDS011;18014;49.228;11.102;2023-03-02T03:46:08;36.33;;;21.77;;
31382;SDS011;18014;49.228;11.102;2023-03-02T03:48:09;37.15;;;21.88;;
31382;SDS011;18014;49.228;11.102;2023-03-02T03:50:10;37.58;;;22.23;;
31382;SDS011;18014;49.228;11.102;2023-03-02T03:52:11;36.70;;;22.17;;
31382;SDS011;18014;49.228;11.102;2023-03-02T03:54:12;37.38;;;22.15;;
31382;SDS011;18014;49.228;11.102;2023-03-02T03:56:13;39.35;;;22.17;;
31382;SDS011;18014;49.228;11.102;2023-03-02T03:58:14;36.30;;;20.25;;
31382;SDS011;18014;49.228;11.102;2023-03-02T04:00:15;39.30;;;22.02;;
31382;SDS011;18014;49.228;11.102;2023-03-02T04:02:17;36.85;;;22.02;;
31382;SDS011;18014;49.228;11.102;2023-03-02T04:04:23;38.33;;;22.83;;
31382;SDS011;18014;49.228;11.102;2023-03-02T04:06:28;36.65;;;22.63;;
31382;SDS011;18014;49.228;11.102;2023-03-02T04:08:29;37.90;;;22.88;;
31382;SDS011;18014;49.228;11.102;2023-03-02T04:10:30;37.58;;;21.35;;
31382;SDS011;18014;49.228;11.102;2023-03-02T04:12:32;39.72;;;21.67;;
31382;SDS011;18014;49.228;11.102;2023-03-02T04:14:34;40.28;;;22.90;;
31382;SDS011;18014;49.228;11.102;2023-03-02T04:16:36;36.60;;;21.98;;
31382;SDS011;18014;49.228;11.102;2023-03-02T04:18:37;35.50;;;20.73;;
31382;SDS011;18014;49.228;11.102;2023-03-02T04:20:38;35.38;;;21.45;;
31382;SDS011;18014;49.228;11.102;2023-03-02T04:22:39;41.90;;;21.83;;
31382;SDS011;18014;49.228;11.102;2023-03-02T04:24:41;40.85;;;21.25;;
31382;SDS011;18014;49.228;11.102;2023-03-02T04:26:42;39.85;;;23.20;;
31382;SDS011;18014;49.228;11.102;2023-03-02T04:28:43;37.90;;;21.65;;
31382;SDS011;18014;49.228;11.102;2023-03-02T04:30:45;39.13;;;22.65;;
31382;SDS011;18014;49.228;11.102;2023-03-02T04:32:46;40.10;;;22.17;;
31382;SDS011;18014;49.228;11.102;2023-03-02T04:34:47;38.00;;;22.20;;
31382;SDS011;18014;49.228;11.102;2023-03-02T04:36:48;42.28;;;24.27;;
31382;SDS011;18014;49.228;11.102;2023-03-02T04:38:48;37.08;;;21.50;;
31382;SDS011;18014;49.228;11.102;2023-03-02T04:40:50;36.08;;;21.55;;
31382;SDS011;18014;49.228;11.102;2023-03-02T04:42:51;36.72;;;21.60;;
31382;SDS011;18014;49.228;11.102;2023-03-02T04:44:52;35.33;;;21.38;;
31382;SDS011;18014;49.228;11.102;2023-03-02T04:46:53;38.03;;;22.10;;
31382;SDS011;18014;49.228;11.102;2023-03-02T04:48:54;40.95;;;21.90;;
31382;SDS011;18014;49.228;11.102;2023-03-02T04:50:55;38.42;;;21.88;;
31382;SDS011;18014;49.228;11.102;2023-03-02T04:52:56;39.80;;;23.45;;
31382;SDS011;18014;49.228;11.102;2023-03-02T04:54:57;38.72;;;23.13;;
31382;SDS011;18014;49.228;11.102;2023-03-02T04:56:58;44.53;;;24.95;;
31382;SDS011;18014;49.228;11.102;2023-03-02T04:58:59;39.95;;;23.40;;
31382;SDS011;18014;49.228;11.102;2023-03-02T05:01:00;35.58;;;22.35;;
31382;SDS011;18014;49.228;11.102;2023-03-02T05:03:03;38.88;;;21.73;;
31382;SDS011;18014;49.228;11.102;2023-03-02T05:05:04;39.17;;;22.05;;
31382;SDS011;18014;49.228;11.102;2023-03-02T05:07:05;39.47;;;22.23;;
31382;SDS011;18014;49.228;11.102;2023-03-02T05:09:06;38.80;;;22.30;;
31382;SDS011;18014;49.228;11.102;2023-03-02T05:11:09;40.53;;;22.40;;
31382;SDS011;18014;49.228;11.102;2023-03-02T05:13:20;37.53;;;22.10;;
31382;SDS011;18014;49.228;11.102;2023-03-02T05:15:25;40.47;;;23.10;;
31382;SDS011;18014;49.228;11.102;2023-03-02T05:17:31;38.80;;;22.92;;
31382;SDS011;18014;49.228;11.102;2023-03-02T05:19:32;35.25;;;22.30;;
31382;SDS011;18014;49.228;11.102;2023-03-02T05:21:33;41.20;;;23.02;;
31382;SDS011;18014;49.228;11.102;2023-03-02T05:23:34;39.40;;;23.25;;
31382;SDS011;18014;49.228;11.102;2023-03-02T05:25:35;39.60;;;21.88;;
31382;SDS011;18014;49.228;11.102;2023-03-02T05:27:37;40.73;;;21.63;;
31382;SDS011;18014;49.228;11.102;2023-03-02T05:29:38;38.17;;;19.58;;
31382;SDS011;18014;49.228;11.102;2023-03-02T05:31:40;40.30;;;22.08;;
31382;SDS011;18014;49.228;11.102;2023-03-02T05:33:42;37.25;;;19.30;;
31382;SDS011;18014;49.228;11.102;2023-03-02T05:35:43;35.80;;;20.90;;
31382;SDS011;18014;49.228;11.102;2023-03-02T05:37:45;34.13;;;20.60;;
31382;SDS011;18014;49.228;11.102;2023-03-02T05:39:46;41.70;;;22.08;;
31382;SDS011;18014;49.228;11.102;2023-03-02T05:41:47;41.97;;;21.83;;
31382;SDS011;18014;49.228;11.102;2023-03-02T05:43:48;37.58;;;20.80;;
31382;SDS011;18014;49.228;11.102;2023-03-02T05:45:49;36.65;;;20.58;;
31382;SDS011;18014;49.228;11.102;2023-03-02T05:47:50;39.33;;;22.33;;
31382;SDS011;18014;49.228;11.102;2023-03-02T05:49:51;35.70;;;21.00;;
31382;SDS011;18014;49.228;11.102;2023-03-02T05:51:52;36.33;;;21.65;;
31382;SDS011;18014;49.228;11.102;2023-03-02T05:53:53;37.90;;;20.48;;
31382;SDS011;18014;49.228;11.102;2023-03-02T05:55:54;35.55;;;21.13;;
31382;SDS011;18014;49.228;11.102;2023-03-02T05:57:55;34.05;;;20.40;;
31382;SDS011;18014;49.228;11.102;2023-03-02T05:59:56;36.33;;;21.95;;
31382;SDS011;18014;49.228;11.102;2023-03-02T06:01:57;35.25;;;20.65;;
31382;SDS011;18014;49.228;11.102;2023-03-02T06:03:58;37.53;;;21.77;;
31382;SDS011;18014;49.228;11.102;2023-03-02T06:05:59;40.45;;;22.85;;
31382;SDS011;18014;49.228;11.102;2023-03-02T06:08:01;40.05;;;22.52;;
31382;SDS011;18014;49.228;11.102;2023-03-02T06:10:03;40.88;;;22.27;;
31382;SDS011;18014;49.228;11.102;2023-03-02T06:12:05;39.03;;;21.52;;
31382;SDS011;18014;49.228;11.102;2023-03-02T06:14:07;44.60;;;23.13;;
31382;SDS011;18014;49.228;11.102;2023-03-02T06:16:08;35.70;;;20.30;;
31382;SDS011;18014;49.228;11.102;2023-03-02T06:18:09;33.60;;;20.13;;
31382;SDS011;18014;49.228;11.102;2023-03-02T06:20:11;27.10;;;15.65;;
31382;SDS011;18014;49.228;11.102;2023-03-02T06:22:13;39.95;;;21.17;;
31382;SDS011;18014;49.228;11.102;2023-03-02T06:24:14;42.45;;;22.58;;
31382;SDS011;18014;49.228;11.102;2023-03-02T06:26:15;42.38;;;23.45;;
31382;SDS011;18014;49.228;11.102;2023-03-02T06:28:17;38.75;;;23.48;;
31382;SDS011;18014;49.228;11.102;2023-03-02T06:30:20;43.92;;;23.13;;
31382;SDS011;18014;49.228;11.102;2023-03-02T06:32:24;42.88;;;23.77;;
31382;SDS011;18014;49.228;11.102;2023-03-02T06:34:25;40.35;;;23.05;;
31382;SDS011;18014;49.228;11.102;2023-03-02T06:36:28;42.88;;;23.58;;
31382;SDS011;18014;49.228;11.102;2023-03-02T06:38:29;43.85;;;23.45;;
31382;SDS011;18014;49.228;11.102;2023-03-02T06:40:30;40.95;;;24.02;;
31382;SDS011;18014;49.228;11.102;2023-03-02T06:42:31;41.22;;;23.42;;
31382;SDS011;18014;49.228;11.102;2023-03-02T06:44:32;47.30;;;25.60;;
31382;SDS011;18014;49.228;11.102;2023-03-02T06:46:33;43.95;;;23.83;;
31382;SDS011;18014;49.228;11.102;2023-03-02T06:48:34;44.60;;;24.75;;
31382;SDS011;18014;49.228;11.102;2023-03-02T06:50:35;41.40;;;24.73;;
31382;SDS011;18014;49.228;11.102;2023-03-02T06:52:36;41.75;;;24.55;;
31382;SDS011;18014;49.228;11.102;2023-03-02T06:54:37;44.28;;;24.17;;
31382;SDS011;18014;49.228;11.102;2023-03-02T06:56:38;37.80;;;22.73;;
31382;SDS011;18014;49.228;11.102;2023-03-02T06:58:39;40.90;;;24.23;;
31382;SDS011;18014;49.228;11.102;2023-03-02T07:00:40;40.97;;;22.70;;
31382;SDS011;18014;49.228;11.102;2023-03-02T07:02:42;41.10;;;24.75;;
31382;SDS011;18014;49.228;11.102;2023-03-02T07:04:43;43.58;;;24.55;;
31382;SDS011;18014;49.228;11.102;2023-03-02T07:06:44;43.03;;;24.25;;
31382;SDS011;18014;49.228;11.102;2023-03-02T07:08:46;39.57;;;24.20;;
31382;SDS011;18014;49.228;11.102;2023-03-02T07:10:47;38.55;;;23.48;;
31382;SDS011;18014;49.228;11.102;2023-03-02T07:12:48;43.97;;;26.27;;
31382;SDS011;18014;49.228;11.102;2023-03-02T07:14:49;40.65;;;24.45;;
31382;SDS011;18014;49.228;11.102;2023-03-02T07:16:50;43.50;;;25.88;;
31382;SDS011;18014;49.228;11.102;2023-03-02T07:18:52;40.63;;;24.67;;
31382;SDS011;18014;49.228;11.102;2023-03-02T07:20:53;41.95;;;23.33;;
31382;SDS011;18014;49.228;11.102;2023-03-02T07:22:54;42.78;;;26.77;;
31382;SDS011;18014;49.228;11.102;2023-03-02T07:24:55;50.45;;;25.95;;
31382;SDS011;18014;49.228;11.102;2023-03-02T07:26:56;42.13;;;24.83;;
31382;SDS011;18014;49.228;11.102;2023-03-02T07:28:57;48.78;;;26.58;;
31382;SDS011;18014;49.228;11.102;2023-03-02T07:30:58;42.35;;;24.63;;
31382;SDS011;18014;49.228;11.102;2023-03-02T07:32:59;37.28;;;23.40;;
31382;SDS011;18014;49.228;11.102;2023-03-02T07:35:00;43.55;;;23.02;;
31382;SDS011;18014;49.228;11.102;2023-03-02T07:37:02;43.60;;;26.10;;
31382;SDS011;18014;49.228;11.102;2023-03-02T07:39:03;47.15;;;27.50;;
31382;SDS011;18014;49.228;11.102;2023-03-02T07:41:05;61.15;;;34.17;;
31382;SDS011;18014;49.228;11.102;2023-03-02T07:45:09;51.30;;;26.15;;
31382;SDS011;18014;49.228;11.102;2023-03-02T07:47:15;43.25;;;27.75;;
31382;SDS011;18014;49.228;11.102;2023-03-02T07:49:16;37.25;;;23.02;;
31382;SDS011;18014;49.228;11.102;2023-03-02T07:51:17;37.15;;;23.35;;
31382;SDS011;18014;49.228;11.102;2023-03-02T07:53:18;41.65;;;25.88;;
31382;SDS011;18014;49.228;11.102;2023-03-02T07:55:19;38.63;;;23.63;;
31382;SDS011;18014;49.228;11.102;2023-03-02T07:57:20;35.25;;;22.70;;
31382;SDS011;18014;49.228;11.102;2023-03-02T07:59:21;34.75;;;21.23;;
31382;SDS011;18014;49.228;11.102;2023-03-02T08:01:22;40.30;;;21.70;;
31382;SDS011;18014;49.228;11.102;2023-03-02T08:03:23;34.15;;;22.10;;
31382;SDS011;18014;49.228;11.102;2023-03-02T08:05:25;34.55;;;21.90;;
31382;SDS011;18014;49.228;11.102;2023-03-02T08:07:26;44.85;;;26.45;;
31382;SDS011;18014;49.228;11.102;2023-03-02T08:09:27;38.80;;;23.75;;
31382;SDS011;18014;49.228;11.102;2023-03-02T08:11:28;35.90;;;23.50;;
31382;SDS011;18014;49.228;11.102;2023-03-02T08:13:29;44.00;;;24.55;;
31382;SDS011;18014;49.228;11.102;2023-03-02T08:15:30;36.45;;;21.48;;
31382;SDS011;18014;49.228;11.102;2023-03-02T08:17:31;36.33;;;23.00;;
31382;SDS011;18014;49.228;11.102;2023-03-02T08:19:32;34.25;;;22.17;;
31382;SDS011;18014;49.228;11.102;2023-03-02T08:21:33;34.88;;;23.08;;
31382;SDS011;18014;49.228;11.102;2023-03-02T08:23:34;33.65;;;22.80;;
31382;SDS011;18014;49.228;11.102;2023-03-02T08:25:35;34.72;;;20.95;;
31382;SDS011;18014;49.228;11.102;2023-03-02T08:27:40;41.78;;;23.38;;
31382;SDS011;18014;49.228;11.102;2023-03-02T08:29:42;36.22;;;21.17;;
31382;SDS011;18014;49.228;11.102;2023-03-02T08:31:43;31.27;;;21.10;;
31382;SDS011;18014;49.228;11.102;2023-03-02T08:33:44;31.70;;;21.52;;
31382;SDS011;18014;49.228;11.102;2023-03-02T08:35:52;34.47;;;21.52;;
31382;SDS011;18014;49.228;11.102;2023-03-02T08:37:58;31.00;;;19.63;;
31382;SDS011;18014;49.228;11.102;2023-03-02T08:39:59;30.33;;;21.70;;
31382;SDS011;18014;49.228;11.102;2023-03-02T08:42:00;33.90;;;22.33;;
31382;SDS011;18014;49.228;11.102;2023-03-02T08:44:01;31.98;;;22.77;;
31382;SDS011;18014;49.228;11.102;2023-03-02T08:46:02;34.55;;;22.38;;
31382;SDS011;18014;49.228;11.102;2023-03-02T08:48:03;26.27;;;21.38;;
31382;SDS011;18014;49.228;11.102;2023-03-02T08:50:04;29.65;;;22.65;;
31382;SDS011;18014;49.228;11.102;2023-03-02T08:52:05;29.48;;;22.40;;
31382;SDS011;18014;49.228;11.102;2023-03-02T08:54:07;31.90;;;20.98;;
31382;SDS011;18014;49.228;11.102;2023-03-02T08:56:24;24.85;;;19.58;;
31382;SDS011;18014;49.228;11.102;2023-03-02T08:58:27;31.45;;;21.92;;
31382;SDS011;18014;49.228;11.102;2023-03-02T09:00:28;29.52;;;23.92;;
31382;SDS011;18014;49.228;11.102;2023-03-02T09:02:29;31.27;;;22.88;;
31382;SDS011;18014;49.228;11.102;2023-03-02T09:04:30;27.55;;;21.75;;
31382;SDS011;18014;49.228;11.102;2023-03-02T09:06:36;26.88;;;19.63;;
31382;SDS011;18014;49.228;11.102;2023-03-02T09:08:42;30.15;;;20.20;;
31382;SDS011;18014;49.228;11.102;2023-03-02T09:10:43;22.67;;;16.60;;
31382;SDS011;18014;49.228;11.102;2023-03-02T09:12:44;26.10;;;16.27;;
31382;SDS011;18014;49.228;11.102;2023-03-02T09:14:45;22.80;;;15.10;;
31382;SDS011;18014;49.228;11.102;2023-03-02T09:16:46;23.45;;;15.90;;
31382;SDS011;18014;49.228;11.102;2023-03-02T09:18:48;21.40;;;14.90;;
31382;SDS011;18014;49.228;11.102;2023-03-02T09:20:49;21.20;;;15.07;;
31382;SDS011;18014;49.228;11.102;2023-03-02T09:22:51;20.92;;;15.35;;
31382;SDS011;18014;49.228;11.102;2023-03-02T09:24:52;23.80;;;15.15;;
31382;SDS011;18014;49.228;11.102;2023-03-02T09:26:53;21.25;;;13.68;;
31382;SDS011;18014;49.228;11.102;2023-03-02T09:28:55;17.73;;;13.73;;
31382;SDS011;18014;49.228;11.102;2023-03-02T09:30:57;22.23;;;16.10;;
31382;SDS011;18014;49.228;11.102;2023-03-02T09:32:59;23.27;;;15.27;;
31382;SDS011;18014;49.228;11.102;2023-03-02T09:35:01;16.65;;;12.63;;
31382;SDS011;18014;49.228;11.102;2023-03-02T09:37:02;18.88;;;14.52;;
31382;SDS011;18014;49.228;11.102;2023-03-02T09:39:03;20.70;;;13.60;;
31382;SDS011;18014;49.228;11.102;2023-03-02T09:47:49;20.23;;;13.18;;
31382;SDS011;18014;49.228;11.102;2023-03-02T09:50:25;18.27;;;13.45;;
31382;SDS011;18014;49.228;11.102;2023-03-02T09:52:35;17.73;;;12.57;;
31382;SDS011;18014;49.228;11.102;2023-03-02T09:54:48;17.48;;;12.00;;
31382;SDS011;18014;49.228;11.102;2023-03-02T09:56:51;18.75;;;12.23;;
31382;SDS011;18014;49.228;11.102;2023-03-02T09:58:58;17.45;;;11.35;;
31382;SDS011;18014;49.228;11.102;2023-03-02T10:01:07;25.25;;;12.23;;
31382;SDS011;18014;49.228;11.102;2023-03-02T10:03:16;17.70;;;11.43;;
31382;SDS011;18014;49.228;11.102;2023-03-02T10:05:26;18.60;;;12.68;;
31382;SDS011;18014;49.228;11.102;2023-03-02T10:07:31;18.27;;;11.95;;
31382;SDS011;18014;49.228;11.102;2023-03-02T10:09:35;18.38;;;12.02;;
31382;SDS011;18014;49.228;11.102;2023-03-02T10:13:57;18.42;;;11.95;;
31382;SDS011;18014;49.228;11.102;2023-03-02T10:20:41;17.48;;;11.98;;
31382;SDS011;18014;49.228;11.102;2023-03-02T10:22:50;20.10;;;12.02;;
31382;SDS011;18014;49.228;11.102;2023-03-02T10:25:07;18.15;;;11.70;;
31382;SDS011;18014;49.228;11.102;2023-03-02T10:27:22;25.08;;;12.95;;
31382;SDS011;18014;49.228;11.102;2023-03-02T10:29:49;17.00;;;11.30;;
31382;SDS011;18014;49.228;11.102;2023-03-02T10:32:04;19.60;;;11.23;;
31382;SDS011;18014;49.228;11.102;2023-03-02T10:34:14;19.35;;;12.25;;
31382;SDS011;18014;49.228;11.102;2023-03-02T10:36:29;18.05;;;11.30;;
31382;SDS011;18014;49.228;11.102;2023-03-02T10:38:35;17.40;;;11.68;;
31382;SDS011;18014;49.228;11.102;2023-03-02T10:40:41;19.52;;;12.48;;
31382;SDS011;18014;49.228;11.102;2023-03-02T10:42:47;18.52;;;11.18;;
31382;SDS011;18014;49.228;11.102;2023-03-02T10:44:52;18.92;;;11.75;;
31382;SDS011;18014;49.228;11.102;2023-03-02T10:46:56;18.25;;;10.93;;
31382;SDS011;18014;49.228;11.102;2023-03-02T10:48:58;17.20;;;11.50;;
31382;SDS011;18014;49.228;11.102;2023-03-02T10:51:00;17.75;;;12.07;;
31382;SDS011;18014;49.228;11.102;2023-03-02T10:53:01;21.38;;;12.68;;
31382;SDS011;18014;49.228;11.102;2023-03-02T10:55:08;23.55;;;12.35;;
31382;SDS011;18014;49.228;11.102;2023-03-02T10:57:55;21.40;;;12.13;;
31382;SDS011;18014;49.228;11.102;2023-03-02T10:59:48;17.88;;;10.77;;
31382;SDS011;18014;49.228;11.102;2023-03-02T11:04:12;17.38;;;12.43;;
31382;SDS011;18014;49.228;11.102;2023-03-02T11:06:16;22.40;;;10.65;;
31382;SDS011;18014;49.228;11.102;2023-03-02T11:08:21;16.60;;;10.23;;
31382;SDS011;18014;49.228;11.102;2023-03-02T11:10:28;17.58;;;10.98;;
31382;SDS011;18014;49.228;11.102;2023-03-02T11:12:34;18.45;;;10.43;;
31382;SDS011;18014;49.228;11.102;2023-03-02T11:14:36;20.92;;;10.75;;
31382;SDS011;18014;49.228;11.102;2023-03-02T11:16:37;18.33;;;12.10;;
31382;SDS011;18014;49.228;11.102;2023-03-02T11:25:36;19.02;;;11.05;;
31382;SDS011;18014;49.228;11.102;2023-03-02T11:27:41;12.63;;;9.30;;
31382;SDS011;18014;49.228;11.102;2023-03-02T11:32:26;13.82;;;9.07;;
31382;SDS011;18014;49.228;11.102;2023-03-02T11:39:28;15.30;;;8.60;;
31382;SDS011;18014;49.228;11.102;2023-03-02T11:41:54;16.13;;;9.27;;
31382;SDS011;18014;49.228;11.102;2023-03-02T11:43:57;15.02;;;9.93;;
31382;SDS011;18014;49.228;11.102;2023-03-02T11:46:01;14.98;;;9.20;;
31382;SDS011;18014;49.228;11.102;2023-03-02T11:50:22;14.80;;;9.57;;
31382;SDS011;18014;49.228;11.102;2023-03-02T11:52:25;12.32;;;9.32;;
31382;SDS011;18014;49.228;11.102;2023-03-02T11:54:38;13.70;;;9.10;;
31382;SDS011;18014;49.228;11.102;2023-03-02T11:56:43;10.93;;;8.43;;
31382;SDS011;18014;49.228;11.102;2023-03-02T11:58:44;11.35;;;8.65;;
31382;SDS011;18014;49.228;11.102;2023-03-02T12:00:56;14.25;;;9.27;;
31382;SDS011;18014;49.228;11.102;2023-03-02T12:03:01;11.55;;;8.20;;
31382;SDS011;18014;49.228;11.102;2023-03-02T12:05:06;12.18;;;9.65;;
31382;SDS011;18014;49.228;11.102;2023-03-02T12:07:23;10.48;;;9.25;;
31382;SDS011;18014;49.228;11.102;2023-03-02T12:09:28;14.98;;;10.00;;
31382;SDS011;18014;49.228;11.102;2023-03-02T12:11:36;17.15;;;10.27;;
31382;SDS011;18014;49.228;11.102;2023-03-02T12:13:39;14.52;;;9.82;;
31382;SDS011;18014;49.228;11.102;2023-03-02T12:15:44;15.20;;;9.52;;
31382;SDS011;18014;49.228;11.102;2023-03-02T12:17:51;13.73;;;10.20;;
31382;SDS011;18014;49.228;11.102;2023-03-02T12:19:54;14.05;;;10.18;;
31382;SDS011;18014;49.228;11.102;2023-03-02T12:22:06;13.70;;;9.60;;
31382;SDS011;18014;49.228;11.102;2023-03-02T12:24:22;13.15;;;8.85;;
31382;SDS011;18014;49.228;11.102;2023-03-02T12:26:27;10.98;;;9.25;;
31382;SDS011;18014;49.228;11.102;2023-03-02T12:28:37;12.30;;;9.65;;
31382;SDS011;18014;49.228;11.102;2023-03-02T12:30:39;15.68;;;9.80;;
31382;SDS011;18014;49.228;11.102;2023-03-02T12:32:40;16.75;;;10.27;;
31382;SDS011;18014;49.228;11.102;2023-03-02T12:34:44;14.43;;;10.27;;